SA Agulhas II — ZSNO — position and weather

sailwx.info

Track history (hours):
 
Tides and Currents Weather Stations Pressure Air Temp Water Temp Dewpoint Dewpoint Depression Visibility Wind Speed Wind Dir Waves Ship Positions

Oceanographic research ship SA Agulhas II (South Africa)

Last reported at 2017-Oct-17 15:00 UTC. Time now 2017-Oct-17 15:06 UTC.
Position S 29°52' E 031°02'.

Length 133 m; draft 6.7 m.

Type: Passenger vessel. MMSI: 601986000.

Date/timePositionNaut miles runAvg speedWind from/ knotsBaromVisibWave heightAir tempDewpointWater temp
2017-Oct-17 15:00S 29°52' E 031°02'0 0.0
2017-Oct-17 14:30S 29°52' E 031°02'0 0.0
2017-Oct-17 14:00S 29°52' E 031°02'0 0.0
2017-Oct-17 13:30S 29°52' E 031°02'0 0.0
2017-Oct-17 13:00S 29°52' E 031°02'0 0.0
2017-Oct-17 12:30S 29°52' E 031°02'0 0.0
2017-Oct-17 11:54S 29°52' E 031°02'0 0.0
2017-Oct-17 11:30S 29°52' E 031°02'0 0.0
2017-Oct-17 11:00S 29°52' E 031°02'0 0.0
2017-Oct-17 10:30S 29°52' E 031°02'0 0.0
2017-Oct-17 09:57S 29°52' E 031°02'0 0.0
2017-Oct-17 09:30S 29°52' E 031°02'0 0.0
2017-Oct-17 09:00S 29°52' E 031°02'0 0.0
2017-Oct-17 08:30S 29°52' E 031°02'0 0.0
2017-Oct-17 07:57S 29°52' E 031°02'0 0.0
2017-Oct-17 07:27S 29°52' E 031°02'0 0.0
2017-Oct-17 07:00S 29°52' E 031°02'0 0.0
2017-Oct-17 06:30S 29°52' E 031°02'5 9.2
2017-Oct-17 06:00S 29°48' E 031°00'546.5 240 / 11011.627.0 17.213.925.2
2017-Oct-17 05:54S 29°52' E 031°02'0 0.0
2017-Oct-17 05:30S 29°52' E 031°02'0 0.0
2017-Oct-17 05:00S 29°52' E 031°02'0 0.0
2017-Oct-17 04:30S 29°52' E 031°02'0 0.0
2017-Oct-17 04:00S 29°52' E 031°02'0 0.0
2017-Oct-17 03:15S 29°52' E 031°02'0 0.0
2017-Oct-17 03:00S 29°52' E 031°02'0 0.0
2017-Oct-17 02:30S 29°52' E 031°02'0 0.0
2017-Oct-17 01:57S 29°52' E 031°02'0 0.0
2017-Oct-17 01:30S 29°52' E 031°02'0 0.0
2017-Oct-17 01:00S 29°52' E 031°02'0 0.0
2017-Oct-17 00:30S 29°52' E 031°02'0 0.0
2017-Oct-17 00:00S 29°52' E 031°02'0 0.0
2017-Oct-16 23:27S 29°52' E 031°02'0 0.1
2017-Oct-16 23:00S 29°52' E 031°02'2 4.8
2017-Oct-16 22:31S 29°51' E 031°04'1 2.1
2017-Oct-16 22:01S 29°50' E 031°05'1 1.3
2017-Oct-16 21:31S 29°50' E 031°05'612.3
2017-Oct-16 21:01S 29°56' E 031°04'917.3
2017-Oct-16 20:31S 30°03' E 030°59'816.3
2017-Oct-16 20:01S 30°10' E 030°55'916.4
2017-Oct-16 19:29S 30°18' E 030°50'2919.7
2017-Oct-16 18:00S 30°42' E 030°30'8213.7 070 / 71010.7 5.4 19.617.921.9
2017-Oct-16 12:00S 31°42' E 029°24'6 1.0 160 / 91009.227.0 19.712.520.6
2017-Oct-16 06:00S 31°48' E 029°24'18915.8 210 / 151013.610.8 18.611.720.7
2017-Oct-15 18:00S 33°48' E 026°30'9816.3 010 / 11014.410.8 16.914.215.8
2017-Oct-15 12:00S 34°12' E 024°36'9616.0 090 / 51012.227.0 17.912.113.8
2017-Oct-15 06:00S 34°30' E 022°42'18815.7 050 / 111013.227.0 17.712.816.4
2017-Oct-14 18:00S 34°36' E 018°54'5311.3 070 / 71013.810.8 17.212.115.9
2017-Oct-14 13:21S 33°53' E 018°18'514.1
2017-Oct-14 13:00S 33°51' E 018°24'3 6.0
2017-Oct-14 12:30S 33°54' E 018°26'0 0.5
2017-Oct-14 11:58S 33°54' E 018°26'0 0.0
2017-Oct-14 11:28S 33°54' E 018°26'0 0.0
2017-Oct-14 10:58S 33°54' E 018°26'0 0.0
2017-Oct-14 10:28S 33°54' E 018°26'0 0.0
2017-Oct-14 09:58S 33°54' E 018°26'0 0.0
2017-Oct-14 09:25S 33°54' E 018°26'0 0.0
2017-Oct-14 08:58S 33°54' E 018°26'0 0.0
2017-Oct-14 08:28S 33°54' E 018°26'0 0.0
2017-Oct-14 07:58S 33°54' E 018°26'0 0.0
2017-Oct-14 07:28S 33°54' E 018°26'0 0.0
2017-Oct-14 06:49S 33°54' E 018°26'0 0.0
2017-Oct-14 06:28S 33°54' E 018°26'0 0.0
2017-Oct-14 05:58S 33°54' E 018°26'0 0.0
2017-Oct-14 05:28S 33°54' E 018°26'0 0.0
2017-Oct-14 04:58S 33°54' E 018°26'0 0.0
2017-Oct-14 04:22S 33°54' E 018°26'0 0.0
2017-Oct-14 03:58S 33°54' E 018°26'0 0.0
2017-Oct-14 03:25S 33°54' E 018°26'0 0.0
2017-Oct-14 02:55S 33°54' E 018°26'0 0.0
2017-Oct-14 02:22S 33°54' E 018°26'0 0.0
2017-Oct-14 01:58S 33°54' E 018°26'0 0.0
2017-Oct-14 01:16S 33°54' E 018°26'0 0.0
2017-Oct-14 00:58S 33°54' E 018°26'0 0.0
2017-Oct-14 00:28S 33°54' E 018°26'0 0.0
2017-Oct-13 23:58S 33°54' E 018°26'0 0.0
2017-Oct-13 23:28S 33°54' E 018°26'0 0.0
2017-Oct-13 22:58S 33°54' E 018°26'0 0.0
2017-Oct-13 22:28S 33°54' E 018°26'0 0.0
2017-Oct-13 21:58S 33°54' E 018°26'0 0.0
2017-Oct-13 21:22S 33°54' E 018°26'0 0.0
2017-Oct-13 20:58S 33°54' E 018°26'0 0.0
2017-Oct-13 20:28S 33°54' E 018°26'0 0.0
2017-Oct-13 19:58S 33°54' E 018°26'0 0.0
2017-Oct-13 19:28S 33°54' E 018°26'0 0.0
2017-Oct-13 18:58S 33°54' E 018°26'0 0.0
2017-Oct-13 18:28S 33°54' E 018°26'0 0.0
2017-Oct-13 17:55S 33°54' E 018°26'0 0.0
2017-Oct-13 17:28S 33°54' E 018°26'0 0.0
2017-Oct-13 16:52S 33°54' E 018°26'0 0.0
2017-Oct-13 16:28S 33°54' E 018°26'0 0.0
2017-Oct-13 15:58S 33°54' E 018°26'0 0.0
2017-Oct-13 15:25S 33°54' E 018°26'0 0.0
2017-Oct-13 14:58S 33°54' E 018°26'0 0.0
2017-Oct-13 14:28S 33°54' E 018°26'0 0.0
2017-Oct-13 13:58S 33°54' E 018°26'0 0.0
2017-Oct-13 13:22S 33°54' E 018°26'0 0.0
2017-Oct-13 12:58S 33°54' E 018°26'0 0.0
2017-Oct-13 12:28S 33°54' E 018°26'0 0.0
2017-Oct-13 11:55S 33°54' E 018°26'0 0.0
2017-Oct-13 11:28S 33°54' E 018°26'0 0.0
2017-Oct-13 10:58S 33°54' E 018°26'0 0.0
2017-Oct-13 10:28S 33°54' E 018°26'0 0.0
2017-Oct-13 09:58S 33°54' E 018°26'0 0.0
2017-Oct-13 09:28S 33°54' E 018°26'0 0.0
2017-Oct-13 08:58S 33°54' E 018°26'0 0.0
2017-Oct-13 08:28S 33°54' E 018°26'0 0.0
2017-Oct-13 07:58S 33°54' E 018°26'0 0.0
2017-Oct-13 07:28S 33°54' E 018°26'0 0.0
2017-Oct-13 06:55S 33°54' E 018°26'0 0.0
2017-Oct-13 06:28S 33°54' E 018°26'0 0.0
2017-Oct-13 05:58S 33°54' E 018°26'0 0.0
2017-Oct-13 05:28S 33°54' E 018°26'0 0.0
2017-Oct-13 04:58S 33°54' E 018°26'0 0.0
2017-Oct-13 04:28S 33°54' E 018°26'0 0.0
2017-Oct-13 03:58S 33°54' E 018°26'0 0.0
2017-Oct-13 03:28S 33°54' E 018°26'0 0.0
2017-Oct-13 02:58S 33°54' E 018°26'0 0.0
2017-Oct-13 02:28S 33°54' E 018°26'0 0.0
2017-Oct-13 01:58S 33°54' E 018°26'0 0.0
2017-Oct-13 01:28S 33°54' E 018°26'0 0.0
2017-Oct-13 00:58S 33°54' E 018°26'0 0.0
2017-Oct-13 00:28S 33°54' E 018°26'0 0.0
2017-Oct-12 23:55S 33°54' E 018°26'0 0.0
2017-Oct-12 23:28S 33°54' E 018°26'0 0.0
2017-Oct-12 22:55S 33°54' E 018°26'0 0.0
2017-Oct-12 22:28S 33°54' E 018°26'0 0.0
2017-Oct-12 21:58S 33°54' E 018°26'0 0.0
2017-Oct-12 21:28S 33°54' E 018°26'0 0.0
2017-Oct-12 20:58S 33°54' E 018°26'0 0.0
2017-Oct-12 20:28S 33°54' E 018°26'0 0.0
2017-Oct-12 19:58S 33°54' E 018°26'0 0.0
2017-Oct-12 19:25S 33°54' E 018°26'0 0.0
2017-Oct-12 18:58S 33°54' E 018°26'0 0.0
2017-Oct-12 18:25S 33°54' E 018°26'0 0.0
2017-Oct-12 17:58S 33°54' E 018°26'0 0.0
2017-Oct-12 17:28S 33°54' E 018°26'0 0.0
2017-Oct-12 16:58S 33°54' E 018°26'0 0.0
2017-Oct-12 16:28S 33°54' E 018°26'0 0.0
2017-Oct-12 15:52S 33°54' E 018°26'0 0.0
2017-Oct-12 15:25S 33°54' E 018°26'0 0.0
2017-Oct-12 14:58S 33°54' E 018°26'0 0.0
2017-Oct-12 14:19S 33°54' E 018°26'0 0.0
2017-Oct-12 13:58S 33°54' E 018°26'0 0.0
2017-Oct-12 13:28S 33°54' E 018°26'0 0.0
2017-Oct-12 12:58S 33°54' E 018°26'0 0.0
2017-Oct-12 12:28S 33°54' E 018°26'0 0.0
2017-Oct-12 11:55S 33°54' E 018°26'0 0.0
2017-Oct-12 11:28S 33°54' E 018°26'0 0.0
2017-Oct-12 10:58S 33°54' E 018°26'0 0.0
2017-Oct-12 10:28S 33°54' E 018°26'0 0.0
2017-Oct-12 09:55S 33°54' E 018°26'0 0.0
2017-Oct-12 09:25S 33°54' E 018°26'0 0.0
2017-Oct-12 08:58S 33°54' E 018°26'0 0.0
2017-Oct-12 08:28S 33°54' E 018°26'0 0.0
2017-Oct-12 07:58S 33°54' E 018°26'0 0.0
2017-Oct-12 07:28S 33°54' E 018°26'0 0.0
2017-Oct-12 06:58S 33°54' E 018°26'0 0.0
2017-Oct-12 06:28S 33°54' E 018°26'0 0.0
2017-Oct-12 05:55S 33°54' E 018°26'0 0.0
2017-Oct-12 05:28S 33°54' E 018°26'0 0.0
2017-Oct-12 04:55S 33°54' E 018°26'0 0.0
2017-Oct-12 04:28S 33°54' E 018°26'0 0.0
2017-Oct-12 03:55S 33°54' E 018°26'0 0.0
2017-Oct-12 03:28S 33°54' E 018°26'0 0.0
2017-Oct-12 02:58S 33°54' E 018°26'0 0.0
2017-Oct-12 02:28S 33°54' E 018°26'0 0.0
2017-Oct-12 01:58S 33°54' E 018°26'0 0.0
2017-Oct-12 01:28S 33°54' E 018°26'0 0.0
2017-Oct-12 00:58S 33°54' E 018°26'0 0.0
2017-Oct-12 00:28S 33°54' E 018°26'0 0.0
2017-Oct-11 23:58S 33°54' E 018°26'0 0.0
2017-Oct-11 23:28S 33°54' E 018°26'0 0.0
2017-Oct-11 22:58S 33°54' E 018°26'0 0.0
2017-Oct-11 22:28S 33°54' E 018°26'0 0.0
2017-Oct-11 21:58S 33°54' E 018°26'0 0.0
2017-Oct-11 21:28S 33°54' E 018°26'0 0.0
2017-Oct-11 20:58S 33°54' E 018°26'0 0.0
2017-Oct-11 20:25S 33°54' E 018°26'0 0.0
2017-Oct-11 19:55S 33°54' E 018°26'0 0.0
2017-Oct-11 19:28S 33°54' E 018°26'0 0.0
2017-Oct-11 18:58S 33°54' E 018°26'0 0.0
2017-Oct-11 18:28S 33°54' E 018°26'0 0.0
2017-Oct-11 17:58S 33°54' E 018°26'0 0.0
2017-Oct-11 17:28S 33°54' E 018°26'0 0.0
2017-Oct-11 16:58S 33°54' E 018°26'130 5.7
2017-Oct-10 18:00S 34°30' E 015°54'13411.1 110 / 191019.4 5.4 16.7 9.116.5
2017-Oct-10 06:00S 34°24' E 013°12'6911.6 100 / 211024.2 5.4 14.712.715.7
2017-Oct-10 00:00S 34°24' E 011°48'7412.4 100 / 211026.710.8 14.810.415.7
2017-Oct-09 18:00S 34°30' E 010°18'7412.4 100 / 211027.710.8 15.3 9.616.2
2017-Oct-09 12:00S 34°24' E 008°48'8414.1 120 / 231028.210.8 16.0 9.416.2
2017-Oct-09 06:00S 34°30' E 007°06'60 9.9 090 / 231028.410.8 13.7 8.516.4
2017-Oct-09 00:00S 34°24' E 005°54'6911.6 090 / 211030.2 5.4 14.1 6.216.3
2017-Oct-08 18:00S 34°24' E 004°30'45 7.5 220 / 17 5.4 13.6 6.716.6
2017-Oct-08 12:00S 34°30' E 003°36'12410.3 270 / 11 5.4 14.0 4.616.6
2017-Oct-08 00:00S 34°24' E 001°06'60 9.9 130 / 271032.010.8 13.0 5.415.8
2017-Oct-07 18:00S 34°30' W 000°06'   140 / 251030.710.8 13.7 6.315.8
Track history (hours):
 
Tides and Currents Weather Stations Pressure Air Temp Water Temp Dewpoint Dewpoint Depression Visibility Wind Speed Wind Dir Waves Ship Positions

Oceanographic research ship SA Agulhas II (South Africa)

Last reported at 2017-Oct-17 15:00 UTC. Time now 2017-Oct-17 15:06 UTC.
Position S 29°52' E 031°02'.

Length 133 m; draft 6.7 m.

Type: Passenger vessel. MMSI: 601986000.

Date/timePositionNaut miles runAvg speedWind from/ knotsBaromVisibWave heightAir tempDewpointWater temp
2017-Oct-17 15:00S 29°52' E 031°02'0 0.0
2017-Oct-17 14:30S 29°52' E 031°02'0 0.0
2017-Oct-17 14:00S 29°52' E 031°02'0 0.0
2017-Oct-17 13:30S 29°52' E 031°02'0 0.0
2017-Oct-17 13:00S 29°52' E 031°02'0 0.0
2017-Oct-17 12:30S 29°52' E 031°02'0 0.0
2017-Oct-17 11:54S 29°52' E 031°02'0 0.0
2017-Oct-17 11:30S 29°52' E 031°02'0 0.0
2017-Oct-17 11:00S 29°52' E 031°02'0 0.0
2017-Oct-17 10:30S 29°52' E 031°02'0 0.0
2017-Oct-17 09:57S 29°52' E 031°02'0 0.0
2017-Oct-17 09:30S 29°52' E 031°02'0 0.0
2017-Oct-17 09:00S 29°52' E 031°02'0 0.0
2017-Oct-17 08:30S 29°52' E 031°02'0 0.0
2017-Oct-17 07:57S 29°52' E 031°02'0 0.0
2017-Oct-17 07:27S 29°52' E 031°02'0 0.0
2017-Oct-17 07:00S 29°52' E 031°02'0 0.0
2017-Oct-17 06:30S 29°52' E 031°02'5 9.2
2017-Oct-17 06:00S 29°48' E 031°00'546.5 240 / 11011.627.0 17.213.925.2
2017-Oct-17 05:54S 29°52' E 031°02'0 0.0
2017-Oct-17 05:30S 29°52' E 031°02'0 0.0
2017-Oct-17 05:00S 29°52' E 031°02'0 0.0
2017-Oct-17 04:30S 29°52' E 031°02'0 0.0
2017-Oct-17 04:00S 29°52' E 031°02'0 0.0
2017-Oct-17 03:15S 29°52' E 031°02'0 0.0
2017-Oct-17 03:00S 29°52' E 031°02'0 0.0
2017-Oct-17 02:30S 29°52' E 031°02'0 0.0
2017-Oct-17 01:57S 29°52' E 031°02'0 0.0
2017-Oct-17 01:30S 29°52' E 031°02'0 0.0
2017-Oct-17 01:00S 29°52' E 031°02'0 0.0
2017-Oct-17 00:30S 29°52' E 031°02'0 0.0
2017-Oct-17 00:00S 29°52' E 031°02'0 0.0
2017-Oct-16 23:27S 29°52' E 031°02'0 0.1
2017-Oct-16 23:00S 29°52' E 031°02'2 4.8
2017-Oct-16 22:31S 29°51' E 031°04'1 2.1
2017-Oct-16 22:01S 29°50' E 031°05'1 1.3
2017-Oct-16 21:31S 29°50' E 031°05'612.3
2017-Oct-16 21:01S 29°56' E 031°04'917.3
2017-Oct-16 20:31S 30°03' E 030°59'816.3
2017-Oct-16 20:01S 30°10' E 030°55'916.4
2017-Oct-16 19:29S 30°18' E 030°50'2919.7
2017-Oct-16 18:00S 30°42' E 030°30'8213.7 070 / 71010.7 5.4 19.617.921.9
2017-Oct-16 12:00S 31°42' E 029°24'6 1.0 160 / 91009.227.0 19.712.520.6
2017-Oct-16 06:00S 31°48' E 029°24'18915.8 210 / 151013.610.8 18.611.720.7
2017-Oct-15 18:00S 33°48' E 026°30'9816.3 010 / 11014.410.8 16.914.215.8
2017-Oct-15 12:00S 34°12' E 024°36'9616.0 090 / 51012.227.0 17.912.113.8
2017-Oct-15 06:00S 34°30' E 022°42'18815.7 050 / 111013.227.0 17.712.816.4
2017-Oct-14 18:00S 34°36' E 018°54'5311.3 070 / 71013.810.8 17.212.115.9
2017-Oct-14 13:21S 33°53' E 018°18'514.1
2017-Oct-14 13:00S 33°51' E 018°24'3 6.0
2017-Oct-14 12:30S 33°54' E 018°26'0 0.5
2017-Oct-14 11:58S 33°54' E 018°26'0 0.0
2017-Oct-14 11:28S 33°54' E 018°26'0 0.0
2017-Oct-14 10:58S 33°54' E 018°26'0 0.0
2017-Oct-14 10:28S 33°54' E 018°26'0 0.0
2017-Oct-14 09:58S 33°54' E 018°26'0 0.0
2017-Oct-14 09:25S 33°54' E 018°26'0 0.0
2017-Oct-14 08:58S 33°54' E 018°26'0 0.0
2017-Oct-14 08:28S 33°54' E 018°26'0 0.0
2017-Oct-14 07:58S 33°54' E 018°26'0 0.0
2017-Oct-14 07:28S 33°54' E 018°26'0 0.0
2017-Oct-14 06:49S 33°54' E 018°26'0 0.0
2017-Oct-14 06:28S 33°54' E 018°26'0 0.0
2017-Oct-14 05:58S 33°54' E 018°26'0 0.0
2017-Oct-14 05:28S 33°54' E 018°26'0 0.0
2017-Oct-14 04:58S 33°54' E 018°26'0 0.0
2017-Oct-14 04:22S 33°54' E 018°26'0 0.0
2017-Oct-14 03:58S 33°54' E 018°26'0 0.0
2017-Oct-14 03:25S 33°54' E 018°26'0 0.0
2017-Oct-14 02:55S 33°54' E 018°26'0 0.0
2017-Oct-14 02:22S 33°54' E 018°26'0 0.0
2017-Oct-14 01:58S 33°54' E 018°26'0 0.0
2017-Oct-14 01:16S 33°54' E 018°26'0 0.0
2017-Oct-14 00:58S 33°54' E 018°26'0 0.0
2017-Oct-14 00:28S 33°54' E 018°26'0 0.0
2017-Oct-13 23:58S 33°54' E 018°26'0 0.0
2017-Oct-13 23:28S 33°54' E 018°26'0 0.0
2017-Oct-13 22:58S 33°54' E 018°26'0 0.0
2017-Oct-13 22:28S 33°54' E 018°26'0 0.0
2017-Oct-13 21:58S 33°54' E 018°26'0 0.0
2017-Oct-13 21:22S 33°54' E 018°26'0 0.0
2017-Oct-13 20:58S 33°54' E 018°26'0 0.0
2017-Oct-13 20:28S 33°54' E 018°26'0 0.0
2017-Oct-13 19:58S 33°54' E 018°26'0 0.0
2017-Oct-13 19:28S 33°54' E 018°26'0 0.0
2017-Oct-13 18:58S 33°54' E 018°26'0 0.0
2017-Oct-13 18:28S 33°54' E 018°26'0 0.0
2017-Oct-13 17:55S 33°54' E 018°26'0 0.0
2017-Oct-13 17:28S 33°54' E 018°26'0 0.0
2017-Oct-13 16:52S 33°54' E 018°26'0 0.0
2017-Oct-13 16:28S 33°54' E 018°26'0 0.0
2017-Oct-13 15:58S 33°54' E 018°26'0 0.0
2017-Oct-13 15:25S 33°54' E 018°26'0 0.0
2017-Oct-13 14:58S 33°54' E 018°26'0 0.0
2017-Oct-13 14:28S 33°54' E 018°26'0 0.0
2017-Oct-13 13:58S 33°54' E 018°26'0 0.0
2017-Oct-13 13:22S 33°54' E 018°26'0 0.0
2017-Oct-13 12:58S 33°54' E 018°26'0 0.0
2017-Oct-13 12:28S 33°54' E 018°26'0 0.0
2017-Oct-13 11:55S 33°54' E 018°26'0 0.0
2017-Oct-13 11:28S 33°54' E 018°26'0 0.0
2017-Oct-13 10:58S 33°54' E 018°26'0 0.0
2017-Oct-13 10:28S 33°54' E 018°26'0 0.0
2017-Oct-13 09:58S 33°54' E 018°26'0 0.0
2017-Oct-13 09:28S 33°54' E 018°26'0 0.0
2017-Oct-13 08:58S 33°54' E 018°26'0 0.0
2017-Oct-13 08:28S 33°54' E 018°26'0 0.0
2017-Oct-13 07:58S 33°54' E 018°26'0 0.0
2017-Oct-13 07:28S 33°54' E 018°26'0 0.0
2017-Oct-13 06:55S 33°54' E 018°26'0 0.0
2017-Oct-13 06:28S 33°54' E 018°26'0 0.0
2017-Oct-13 05:58S 33°54' E 018°26'0 0.0
2017-Oct-13 05:28S 33°54' E 018°26'0 0.0
2017-Oct-13 04:58S 33°54' E 018°26'0 0.0
2017-Oct-13 04:28S 33°54' E 018°26'0 0.0
2017-Oct-13 03:58S 33°54' E 018°26'0 0.0
2017-Oct-13 03:28S 33°54' E 018°26'0 0.0
2017-Oct-13 02:58S 33°54' E 018°26'0 0.0
2017-Oct-13 02:28S 33°54' E 018°26'0 0.0
2017-Oct-13 01:58S 33°54' E 018°26'0 0.0
2017-Oct-13 01:28S 33°54' E 018°26'0 0.0
2017-Oct-13 00:58S 33°54' E 018°26'0 0.0
2017-Oct-13 00:28S 33°54' E 018°26'0 0.0
2017-Oct-12 23:55S 33°54' E 018°26'0 0.0
2017-Oct-12 23:28S 33°54' E 018°26'0 0.0
2017-Oct-12 22:55S 33°54' E 018°26'0 0.0
2017-Oct-12 22:28S 33°54' E 018°26'0 0.0
2017-Oct-12 21:58S 33°54' E 018°26'0 0.0
2017-Oct-12 21:28S 33°54' E 018°26'0 0.0
2017-Oct-12 20:58S 33°54' E 018°26'0 0.0
2017-Oct-12 20:28S 33°54' E 018°26'0 0.0
2017-Oct-12 19:58S 33°54' E 018°26'0 0.0
2017-Oct-12 19:25S 33°54' E 018°26'0 0.0
2017-Oct-12 18:58S 33°54' E 018°26'0 0.0
2017-Oct-12 18:25S 33°54' E 018°26'0 0.0
2017-Oct-12 17:58S 33°54' E 018°26'0 0.0
2017-Oct-12 17:28S 33°54' E 018°26'0 0.0
2017-Oct-12 16:58S 33°54' E 018°26'0 0.0
2017-Oct-12 16:28S 33°54' E 018°26'0 0.0
2017-Oct-12 15:52S 33°54' E 018°26'0 0.0
2017-Oct-12 15:25S 33°54' E 018°26'0 0.0
2017-Oct-12 14:58S 33°54' E 018°26'0 0.0
2017-Oct-12 14:19S 33°54' E 018°26'0 0.0
2017-Oct-12 13:58S 33°54' E 018°26'0 0.0
2017-Oct-12 13:28S 33°54' E 018°26'0 0.0
2017-Oct-12 12:58S 33°54' E 018°26'0 0.0
2017-Oct-12 12:28S 33°54' E 018°26'0 0.0
2017-Oct-12 11:55S 33°54' E 018°26'0 0.0
2017-Oct-12 11:28S 33°54' E 018°26'0 0.0
2017-Oct-12 10:58S 33°54' E 018°26'0 0.0
2017-Oct-12 10:28S 33°54' E 018°26'0 0.0
2017-Oct-12 09:55S 33°54' E 018°26'0 0.0
2017-Oct-12 09:25S 33°54' E 018°26'0 0.0
2017-Oct-12 08:58S 33°54' E 018°26'0 0.0
2017-Oct-12 08:28S 33°54' E 018°26'0 0.0
2017-Oct-12 07:58S 33°54' E 018°26'0 0.0
2017-Oct-12 07:28S 33°54' E 018°26'0 0.0
2017-Oct-12 06:58S 33°54' E 018°26'0 0.0
2017-Oct-12 06:28S 33°54' E 018°26'0 0.0
2017-Oct-12 05:55S 33°54' E 018°26'0 0.0
2017-Oct-12 05:28S 33°54' E 018°26'0 0.0
2017-Oct-12 04:55S 33°54' E 018°26'0 0.0
2017-Oct-12 04:28S 33°54' E 018°26'0 0.0
2017-Oct-12 03:55S 33°54' E 018°26'0 0.0
2017-Oct-12 03:28S 33°54' E 018°26'0 0.0
2017-Oct-12 02:58S 33°54' E 018°26'0 0.0
2017-Oct-12 02:28S 33°54' E 018°26'0 0.0
2017-Oct-12 01:58S 33°54' E 018°26'0 0.0
2017-Oct-12 01:28S 33°54' E 018°26'0 0.0
2017-Oct-12 00:58S 33°54' E 018°26'0 0.0
2017-Oct-12 00:28S 33°54' E 018°26'0 0.0
2017-Oct-11 23:58S 33°54' E 018°26'0 0.0
2017-Oct-11 23:28S 33°54' E 018°26'0 0.0
2017-Oct-11 22:58S 33°54' E 018°26'0 0.0
2017-Oct-11 22:28S 33°54' E 018°26'0 0.0
2017-Oct-11 21:58S 33°54' E 018°26'0 0.0
2017-Oct-11 21:28S 33°54' E 018°26'0 0.0
2017-Oct-11 20:58S 33°54' E 018°26'0 0.0
2017-Oct-11 20:25S 33°54' E 018°26'0 0.0
2017-Oct-11 19:55S 33°54' E 018°26'0 0.0
2017-Oct-11 19:28S 33°54' E 018°26'0 0.0
2017-Oct-11 18:58S 33°54' E 018°26'0 0.0
2017-Oct-11 18:28S 33°54' E 018°26'0 0.0
2017-Oct-11 17:58S 33°54' E 018°26'0 0.0
2017-Oct-11 17:28S 33°54' E 018°26'0 0.0
2017-Oct-11 16:58S 33°54' E 018°26'130 5.7
2017-Oct-10 18:00S 34°30' E 015°54'13411.1 110 / 191019.4 5.4 16.7 9.116.5
2017-Oct-10 06:00S 34°24' E 013°12'6911.6 100 / 211024.2 5.4 14.712.715.7
2017-Oct-10 00:00S 34°24' E 011°48'7412.4 100 / 211026.710.8 14.810.415.7
2017-Oct-09 18:00S 34°30' E 010°18'7412.4 100 / 211027.710.8 15.3 9.616.2
2017-Oct-09 12:00S 34°24' E 008°48'8414.1 120 / 231028.210.8 16.0 9.416.2
2017-Oct-09 06:00S 34°30' E 007°06'60 9.9 090 / 231028.410.8 13.7 8.516.4
2017-Oct-09 00:00S 34°24' E 005°54'6911.6 090 / 211030.2 5.4 14.1 6.216.3
2017-Oct-08 18:00S 34°24' E 004°30'45 7.5 220 / 17 5.4 13.6 6.716.6
2017-Oct-08 12:00S 34°30' E 003°36'12410.3 270 / 11 5.4 14.0 4.616.6
2017-Oct-08 00:00S 34°24' E 001°06'60 9.9 130 / 271032.010.8 13.0 5.415.8
2017-Oct-07 18:00S 34°30' W 000°06'   140 / 251030.710.8 13.7 6.315.8

Dump ship's entire track history